• Join FlightAware (Why Join?)
  • Login
  • US Flag 
05:51PM EDT


 

Airport Tracker/Info


-or-


 

Live Flight TrackerFlight Track Log ✈ N510SR ✈ 28-Apr-2013 ✈ KPBI - KTEB

Flight Track Log - Related Links

Times and Time Zones

All times are in EDT time to prevent confusion due to time zone crossing. See the N510SR flight status page for this flight to view local times or setup timezone preferences in your user account.

Time Position Orientation Groundspeed Altitude Reporting Facility
EDT Latitude Longitude Course Direction KTS MPH feet Rate Location/Type
04:37PM 26.7392 -79.9481 61° Northeast 252 290 6,900  Level Miami Center
04:38PM 26.7903 -79.8914 45° Northeast 274 315 9,800 2,100 Climbing Miami Center
04:39PM 26.8567 -79.8117 47° Northeast 320 368 11,100 2,040 Climbing Miami Center
04:40PM 26.9214 -79.7106 54° Northeast 363 418 13,900 1,440 Climbing Miami Center
04:41PM 27.0613 -79.4739 50° Northeast  Level FlightAware Approximate
04:41PM 26.9903 -79.6097 53° Northeast 385 443 14,000  Level Miami Center
04:42PM 27.1258 -79.3650 61° Northeast  Level FlightAware Approximate
04:42PM 27.0547 -79.5064 55° Northeast 402 463 14,000  Level Miami Center
04:43PM 27.1214 -79.4097 52° Northeast 416 479 15,800 1,920 Climbing Miami Center
04:44PM 27.1878 -79.3061 54° Northeast 411 473 17,900 2,160 Climbing Miami Center
04:45PM 27.2608 -79.1839 56° Northeast 423 487 20,200 2,220 Climbing Miami Center
04:46PM 27.3378 -79.0733 52° Northeast 428 493 22,400 1,860 Climbing Miami Center
04:47PM 27.4308 -78.9836 41° Northeast 433 498 23,900 1,560 Climbing Miami Center
04:48PM 27.5381 -78.9364 21° North 445 512 25,500 2,160 Climbing Miami Center
04:49PM 27.6742 -78.9131 North 435 501 28,300 2,640 Climbing Miami Center
04:50PM 27.7956 -78.8967 North 446 513 30,800 1,860 Climbing Miami Center
04:51PM 27.8981 -78.8819 North 440 506 32,100 1,680 Climbing Miami Center
04:52PM 28.0214 -78.8653 North 434 499 34,200 2,400 Climbing Miami Center
04:53PM 28.1386 -78.8486 North 424 488 37,000 2,400 Climbing Miami Center
04:54PM 28.2517 -78.8317 North 417 480 39,000 1,380 Climbing Miami Center
04:55PM 28.3625 -78.8147 North 404 465 39,800 900 Climbing Miami Center
04:56PM 28.4753 -78.8003 North 404 465 40,800 600 Climbing Miami Center
04:57PM 28.5925 -78.7833 North 410 472 41,000 60 Climbing Miami Center
04:58PM 28.7117 -78.7642 North 423 487 41,000  Level Miami Center
04:59PM 28.8350 -78.7425 North 432 497 41,000  Level Miami Center
05:00PM 28.9833 -78.7261 North 448 516 41,000  Level Miami Center
05:01PM 29.0839 -78.7086 North 468 539 41,000  Level Miami Center
05:02PM 29.2386 -78.6875 North 463 533 41,000  Level Miami Center
05:03PM 29.3700 -78.6706 North 407 468 41,000  Level Miami Center
05:04PM 29.4956 -78.6489 North 477 549 41,000  Level Miami Center
05:05PM 29.6272 -78.6294 North 472 543 41,000  Level Miami Center
05:06PM 29.7853 -78.6044 North 474 545 41,000  Level Jacksonville Center
05:07PM 29.9139 -78.5844 North 486 559 41,000  Level Jacksonville Center
05:08PM 30.0425 -78.5594 10° North 471 542 41,000  Level Jacksonville Center
05:09PM 30.1692 -78.5347 10° North 479 551 41,000  Level Jacksonville Center
05:10PM 30.2897 -78.5219 North 474 545 41,100  Climbing Jacksonville Center
05:11PM 30.4247 -78.5036 North 482 555 41,100  Level Jacksonville Center
05:12PM 30.5597 -78.4831 North 482 555 41,100  Level Jacksonville Center
05:13PM 30.6967 -78.4622 North 482 555 41,100  Level Jacksonville Center
05:14PM 30.8233 -78.4417 North 477 549 41,100  Level Jacksonville Center
05:15PM 30.9519 -78.4211 North 472 543 41,100 -60 Level Jacksonville Center
05:16PM 31.0850 -78.4003 North 472 543 41,000 -60 Descending Jacksonville Center
05:17PM 31.2156 -78.3794 North 465 535 41,000  Level Jacksonville Center
05:18PM 31.3425 -78.3661 North 465 535 41,000  Level Jacksonville Center
05:19PM 31.4731 -78.3403 10° North 465 535 41,000  Level Jacksonville Center
05:20PM 31.6019 -78.3217 North 465 535 41,000  Level Jacksonville Center
05:21PM 31.7286 -78.3033 North 465 535 41,000  Level Jacksonville Center
05:22PM 31.8592 -78.2797 North 465 535 41,000  Level Jacksonville Center
05:23PM 31.9878 -78.2608 North 465 535 41,000  Level Jacksonville Center
05:24PM 32.1183 -78.2322 11° North 465 535 41,000  Level Jacksonville Center
05:25PM 32.2514 -78.2133 North 470 541 41,000 180 Level Jacksonville Center
05:26PM 32.3819 -78.1942 North 470 541 41,400 960 Climbing Jacksonville Center
05:27PM 32.5083 -78.1706 North 464 534 43,000 780 Climbing Jacksonville Center
05:28PM 32.6308 -78.1517 North 454 522 43,000  Level Jacksonville Center
05:29PM 32.7594 -78.1303 North 454 522 43,000  Level Jacksonville Center
05:30PM 32.8861 -78.1136 North 454 522 43,000  Level Jacksonville Center
05:32PM 33.0989 -78.0775 North 470 541 43,000  Level Washington Center
05:33PM 33.2267 -78.0564 North 470 541 43,000  Level Washington Center
05:34PM 33.3542 -78.0378 North 465 535 43,000  Level Washington Center
05:35PM 33.4839 -78.0167 North 465 535 43,000  Level Washington Center
05:36PM 33.6114 -77.9981 North 465 535 43,000  Level Washington Center
05:37PM 33.7392 -77.9767 North 465 535 43,000  Level Washington Center
05:38PM 33.8481 -77.9572 North 465 535 43,000  Level Washington Center
05:39PM 34.0092 -77.9292 North 475 547 43,100  Climbing Washington Center
05:40PM 34.1431 -77.9106 North 482 555 43,100  Level Washington Center
05:41PM 34.2769 -77.8892 North 482 555 43,100 -60 Level Washington Center
05:42PM 34.4003 -77.8800 North 489 563 43,000 -60 Descending Washington Center
05:43PM 34.5319 -77.8736 North 481 554 43,000  Level Washington Center
05:44PM 34.6633 -77.8722 360° North 475 547 43,000  Level Washington Center
05:45PM 34.7989 -77.8708 360° North 480 552 43,000  Level Washington Center
05:46PM 34.9264 -77.8669 North 470 541 43,100  Climbing Washington Center
05:47PM 35.0558 -77.8628 North 470 541 43,100  Level Washington Center
05:48PM 35.1894 -77.8617 360° North 470 541 43,100  Level Washington Center
05:49PM 35.3272 -77.8578 North 475 547 43,100  Level Washington Center
05:50PM 35.4586 -77.8539 North 475 547 43,100  Level Washington Center
05:51PM 35.5944 -77.8525 360° North 480 552 43,100  Level Washington Center
05:52PM 35.7281 -77.8358 North 480 552 43,100  Level Washington Center
05:53PM 35.8583 -77.7961 14° North 480 552 43,100  Level Washington Center
05:54PM 35.9864 -77.7533 15° North 480 552 43,100 -60 Level Washington Center
05:55PM 36.1081 -77.7106 16° North 469 540 43,000  Descending Washington Center
05:56PM 36.2319 -77.6622 17° North 459 528 43,100  Climbing Washington Center
05:57PM 36.3581 -77.6217 15° North 459 528 43,000 -60 Descending Washington Center
05:58PM 36.4778 -77.5758 17° North 459 528 43,000  Level Washington Center
05:59PM 36.6014 -77.5325 16° North 459 528 43,100  Climbing Washington Center
06:00PM 36.7253 -77.4861 17° North 459 528 43,100 -60 Level Washington Center
06:01PM 36.8492 -77.4425 16° North 459 528 43,000  Descending Washington Center
06:02PM 36.9897 -77.3914 16° North 468 539 43,100  Climbing Washington Center
06:03PM 37.1133 -77.3472 16° North 468 539 43,100 -60 Level Washington Center
06:04PM 37.2392 -77.2981 17° North 462 532 43,000 -120 Descending Washington Center
06:05PM 37.3483 -77.2586 16° North 457 526 42,900 -720 Descending Washington Center
06:06PM 37.4739 -77.2142 16° North 463 533 41,600 -1,320 Descending Washington Center
06:07PM 37.5914 -77.1694 17° North 455 524 40,300 -1,260 Descending Washington Center
06:08PM 37.7067 -77.1247 17° North 442 509 39,100 -600 Descending Washington Center
06:09PM 37.8242 -77.0692 20° North 442 509 39,100 -360 Level Washington Center
06:10PM 37.9419 -76.9953 26° Northeast 455 524 38,500 -960 Descending Washington Center
06:11PM 38.0594 -76.9208 27° Northeast 461 531 37,300 -1,380 Descending Washington Center
06:12PM 38.1792 -76.8464 26° Northeast 466 536 35,800 -1,380 Descending Washington Center
06:13PM 38.3175 -76.7642 25° Northeast 479 551 34,500 -900 Descending Washington Center
06:14PM 38.4392 -76.6864 27° Northeast 479 551 34,100 -240 Descending Washington Center
06:15PM 38.5631 -76.6111 25° Northeast 479 551 34,100 -1,020 Level Washington Center
06:16PM 38.6867 -76.5306 27° Northeast 485 558 32,100 -2,580 Descending Washington Center
06:17PM 38.8144 -76.4494 26° Northeast 493 567 28,900 -3,660 Descending Washington Center
06:17PM 38.9378 -76.3708 26° Northeast 493 567 25,000 -2,520 Descending Washington Center
06:19PM 39.0550 -76.2944 27° Northeast 480 552 24,000 -480 Descending Washington Center
06:20PM 39.1639 -76.2019 33° Northeast 468 539 24,100  Climbing Washington Center
06:21PM 39.2686 -76.0983 37° Northeast 463 533 24,000 -300 Descending Washington Center
06:22PM 39.3711 -75.9997 37° Northeast 463 533 23,600 -1,740 Descending Washington Center
06:23PM 39.4736 -75.9008 37° Northeast 458 527 20,600 -2,880 Descending Washington Center
06:24PM 39.5697 -75.8094 36° Northeast 444 511 17,900 -2,220 Descending Washington Center
06:26PM 39.7833 -75.6167 35° Northeast 353 406 13,100 -1,440 Descending Philadelphia TRACON
06:27PM 39.8667 -75.5333 37° Northeast 356 410 13,100  Level Philadelphia TRACON
06:28PM 39.9500 -75.4667 32° Northeast 358 412 13,100  Level Philadelphia TRACON
06:29PM 40.0167 -75.3833 44° Northeast 350 403 13,100  Level Philadelphia TRACON
06:30PM 40.0833 -75.3333 30° Northeast 351 404 13,100 -180 Level Philadelphia TRACON
06:31PM 40.1667 -75.2500 37° Northeast 347 399 12,800 -1,020 Descending Philadelphia TRACON
06:32PM 40.2500 -75.1667 37° Northeast 341 392 11,000 -1,740 Descending Philadelphia TRACON
06:33PM 40.3333 -75.0833 37° Northeast 308 354 8,900 -1,740 Descending New York TRACON
06:34PM 40.4000 -75.0167 37° Northeast 292 336 7,300 -1,380 Descending New York TRACON
06:35PM 40.4500 -74.9333 52° Northeast 293 337 6,200 -1,260 Descending New York TRACON
06:36PM 40.5000 -74.8500 52° Northeast 283 326 4,800 -1,080 Descending New York TRACON
06:37PM 40.5500 -74.7833 45° Northeast 279 321 4,100 -360 Descending New York TRACON
06:38PM 40.6167 -74.7000 43° Northeast 281 323 4,100  Level New York TRACON
06:39PM 40.6833 -74.6500 30° Northeast 282 325 4,100  Level New York TRACON
06:40PM 40.7500 -74.6000 30° Northeast 280 322 4,100  Level New York TRACON
06:41PM 40.8000 -74.5333 45° Northeast 252 290 4,100 -180 Level New York TRACON
06:42PM 40.8500 -74.4833 37° Northeast 251 289 3,800 -420 Descending New York TRACON
06:43PM 40.9000 -74.4333 37° Northeast 247 284 3,300 -360 Descending New York TRACON
06:44PM 40.9667 -74.3667 37° Northeast 251 289 3,100 -120 Descending New York TRACON
06:45PM 41.0000 -74.3167 49° Northeast 252 290 3,100 -120 Level New York TRACON
06:46PM 41.0167 -74.2333 75° East 241 277 2,900 -480 Descending New York TRACON
06:47PM 41.0167 -74.1333 90° East 205 236 2,100 -480 Descending New York TRACON
06:48PM 41.0000 -74.0833 114° Southeast 193 222 2,000  Descending New York TRACON
06:49PM 40.9667 -74.0500 143° Southeast 178 205 2,100 -360 Climbing New York TRACON
06:50PM 40.9167 -74.0500 180° South 165 190 1,300 -780 Descending New York TRACON
06:51PM 40.8667 -74.0500 180° South 132 152 500 -780 Descending New York TRACON
06:53PM 40.8500 -74.0500 170° South  Level FlightAware Approximate
07:00PM 40.8501 -74.0608 170° South  Level Estimated